Time;durP1;ratioP1;P1;durP2;ratioP2;P2;SDS_P1;SDS_P2;PMS_P1;PMS_P2;Temp;Humidity;BMP_temperature;BMP_pressure;BME280_temperature;BME280_humidity;BME280_pressure;Samples;Min_cycle;Max_cycle;Signal;HPM_P1;HPM_P2
2022/12/23 00:01:54;;;;;;;27.98;19.90;;;;;;;4.03;62.72;100116.38;1819664;77;21602;-58
2022/12/23 00:04:20;;;;;;;21.82;10.03;;;;;;;4.00;62.75;100117.84;1814838;78;21058;-58
2022/12/23 00:06:47;;;;;;;17.50;8.68;;;;;;;3.97;62.78;100111.06;1813665;77;21579;-58
2022/12/23 00:09:13;;;;;;;26.37;19.87;;;;;;;3.92;62.80;100111.78;1809508;78;22327;-58
2022/12/23 00:15:04;;;;;;;16.93;8.90;;;;;;;3.86;62.88;100109.05;1790175;78;21050;-59
2022/12/23 00:16:53;;;;;;;20.43;10.43;;;;;;;3.78;62.91;100099.53;1818579;77;21034;-58
2022/12/23 00:19:20;;;;;;;17.55;10.10;;;;;;;3.72;63.10;100105.09;1792991;78;21054;-58
2022/12/23 00:21:47;;;;;;;28.45;11.40;;;;;;;3.70;63.18;100107.78;1808305;78;21340;-59
2022/12/23 00:24:13;;;;;;;27.02;20.50;;;;;;;3.66;63.29;100095.85;1805660;77;21054;-58
2022/12/23 00:26:40;;;;;;;15.40;9.45;;;;;;;3.63;63.31;100095.19;1791874;78;21031;-58
2022/12/23 00:29:06;;;;;;;15.53;8.95;;;;;;;3.62;63.23;100084.42;1799283;77;20998;-58
2022/12/23 00:31:33;;;;;;;17.42;8.88;;;;;;;3.66;63.08;100070.30;1799892;78;21109;-58
2022/12/23 00:33:59;;;;;;;28.17;19.62;;;;;;;3.72;63.18;100064.77;1793720;79;22025;-58
2022/12/23 00:36:28;;;;;;;19.55;9.25;;;;;;;3.77;63.19;100067.94;1798605;79;21395;-59
2022/12/23 00:44:26;;;;;;;19.75;9.65;;;;;;;3.71;63.10;100087.80;1809868;79;21011;-58
2022/12/23 00:46:52;;;;;;;20.02;10.18;;;;;;;3.68;63.20;100082.31;1791264;78;21297;-58
2022/12/23 00:52:05;;;;;;;18.27;10.40;;;;;;;3.56;63.23;100066.55;1793307;78;21113;-58
2022/12/23 00:54:31;;;;;;;20.25;11.08;;;;;;;3.51;63.31;100072.00;1791224;78;21018;-57
2022/12/23 00:56:59;;;;;;;21.97;10.80;;;;;;;3.48;63.29;100067.81;1801477;77;21063;-57
2022/12/23 00:59:25;;;;;;;18.35;9.33;;;;;;;3.42;63.22;100066.84;1796818;78;21144;-59
2022/12/23 01:07:22;;;;;;;21.30;10.98;;;;;;;3.28;63.67;100053.78;1806996;77;21725;-58
2022/12/23 01:09:49;;;;;;;20.72;11.90;;;;;;;3.26;63.79;100050.41;1794997;77;21051;-58
2022/12/23 01:12:15;;;;;;;27.25;20.37;;;;;;;3.24;63.86;100048.36;1799879;77;21149;-58
2022/12/23 01:14:42;;;;;;;17.15;8.88;;;;;;;3.22;63.83;100045.01;1793992;77;21047;-58
2022/12/23 01:17:08;;;;;;;24.25;18.17;;;;;;;3.19;64.00;100049.91;1761154;79;21011;-58
2022/12/23 01:19:36;;;;;;;16.50;7.65;;;;;;;3.20;64.10;100050.77;1739342;80;21034;-58
2022/12/23 01:22:02;;;;;;;21.68;10.18;;;;;;;3.26;64.16;100050.41;1753816;80;21294;-59
2022/12/23 01:24:30;;;;;;;16.62;8.38;;;;;;;3.33;64.24;100051.77;1746114;80;21233;-59
2022/12/23 01:26:56;;;;;;;13.30;8.30;;;;;;;3.39;64.27;100057.91;1815250;77;21014;-58
2022/12/23 01:29:23;;;;;;;26.12;18.65;;;;;;;3.46;64.35;100064.47;1811110;78;21552;-58
2022/12/23 01:31:49;;;;;;;20.27;11.50;;;;;;;3.48;64.48;100067.81;1805392;77;21638;-58
2022/12/23 01:34:16;;;;;;;27.58;20.43;;;;;;;3.48;64.42;100063.05;1789632;78;21046;-58
2022/12/23 01:36:43;;;;;;;15.65;7.90;;;;;;;3.48;64.50;100060.02;1792361;78;21222;-59
2022/12/23 01:39:09;;;;;;;28.98;19.62;;;;;;;3.49;64.52;100064.75;1815588;77;21023;-58
2022/12/23 01:44:49;;;;;;;14.75;8.23;;;;;;;3.43;64.61;100052.07;1819800;78;20999;-58
2022/12/23 01:47:24;;;;;;;17.05;9.45;;;;;;;3.38;64.84;100044.98;1810761;77;21082;-59
2022/12/23 01:52:51;;;;;;;20.40;8.00;;;;;;;3.29;65.09;100044.56;1696750;82;21091;-81
2022/12/23 01:55:22;;;;;;;16.70;8.65;;;;;;;3.26;65.28;100042.61;1696050;82;21019;-83
2022/12/23 01:57:48;;;;;;;17.10;9.43;;;;;;;3.21;65.43;100040.72;1648930;86;21047;-84
2022/12/23 02:05:46;;;;;;;15.20;7.15;;;;;;;3.24;65.64;100045.76;1700993;83;21106;-83
2022/12/23 02:11:19;;;;;;;13.45;9.03;;;;;;;3.31;65.77;100044.48;1708069;82;20986;-83
2022/12/23 02:17:09;;;;;;;17.55;9.25;;;;;;;3.19;66.35;100030.87;1836926;75;21976;-58
2022/12/23 02:20:00;;;;;;;23.00;9.28;;;;;;;3.29;65.90;100034.64;1813281;77;21035;-59
2022/12/23 02:23:04;;;;;;;20.82;9.43;;;;;;;3.26;65.90;100036.10;1760861;77;21251;-59
2022/12/23 02:25:45;;;;;;;22.07;11.20;;;;;;;3.24;66.04;100040.55;1818940;77;20968;-58
2022/12/23 02:28:37;;;;;;;19.85;9.78;;;;;;;3.21;66.06;100040.28;1757532;80;20931;-58
2022/12/23 02:31:14;;;;;;;19.12;9.40;;;;;;;3.20;66.16;100045.56;1770195;80;21134;-59
2022/12/23 02:33:52;;;;;;;31.75;22.48;;;;;;;3.20;66.22;100042.49;1765698;80;21042;-59
2022/12/23 02:36:40;;;;;;;23.07;10.60;;;;;;;3.24;66.16;100039.25;1760815;79;21099;-59
2022/12/23 02:39:28;;;;;;;19.00;9.88;;;;;;;3.34;66.01;100042.55;1755888;79;21114;-59
2022/12/23 02:42:19;;;;;;;28.92;20.95;;;;;;;3.44;65.91;100040.28;1758454;79;20945;-59
2022/12/23 02:45:15;;;;;;;18.85;10.20;;;;;;;3.51;65.89;100029.94;1749590;80;21150;-59
2022/12/23 02:47:50;;;;;;;18.15;8.75;;;;;;;3.54;65.85;100036.23;1720982;82;21449;-59
2022/12/23 02:50:22;;;;;;;17.87;8.43;;;;;;;3.52;65.81;100030.29;1716029;82;21250;-59
2022/12/23 02:52:49;;;;;;;19.12;10.70;;;;;;;3.48;65.85;100024.90;1699408;80;21117;-59
2022/12/23 02:55:20;;;;;;;15.65;10.40;;;;;;;3.46;65.91;100025.89;1754890;80;21107;-59
2022/12/23 02:57:48;;;;;;;26.97;11.48;;;;;;;3.44;65.93;100016.05;1774454;80;21466;-59
2022/12/23 03:00:18;;;;;;;20.55;10.10;;;;;;;3.41;65.90;100014.91;1753103;80;21055;-59
2022/12/23 03:02:44;;;;;;;17.80;10.05;;;;;;;3.38;65.98;100018.53;1770789;80;21215;-60
2022/12/23 03:05:28;;;;;;;14.65;9.28;;;;;;;3.36;65.95;100020.36;1733833;80;21540;-59
2022/12/23 03:07:59;;;;;;;17.98;10.35;;;;;;;3.34;66.02;100025.64;1752025;80;21030;-59
2022/12/23 03:10:45;;;;;;;16.80;9.80;;;;;;;3.35;65.95;100029.94;1818216;77;21054;-59
2022/12/23 03:13:41;;;;;;;29.15;19.92;;;;;;;3.40;65.93;100022.36;1827029;77;21310;-59
2022/12/23 03:16:45;;;;;;;17.57;9.68;;;;;;;3.45;65.88;100033.34;1820496;77;22652;-59
2022/12/23 03:21:10;;;;;;;16.00;8.55;;;;;;;3.25;66.94;100027.95;1846597;75;22657;-95
2022/12/23 03:23:59;;;;;;;29.98;10.90;;;;;;;3.42;66.22;100029.13;1710064;82;21074;-58
2022/12/23 03:26:33;;;;;;;16.40;8.93;;;;;;;3.39;66.15;100017.59;1746078;80;21153;-58
2022/12/23 03:29:33;;;;;;;18.60;9.85;;;;;;;3.34;66.24;100015.24;1746857;80;21054;-59
2022/12/23 03:31:59;;;;;;;18.90;9.60;;;;;;;3.31;66.31;100019.78;1684394;83;21095;-59
2022/12/23 03:34:29;;;;;;;32.93;24.57;;;;;;;3.23;66.42;100020.23;1737313;80;21554;-59
2022/12/23 03:36:59;;;;;;;20.43;8.25;;;;;;;3.21;66.50;100025.12;1748499;80;20991;-58
2022/12/23 03:39:33;;;;;;;17.82;8.85;;;;;;;3.23;66.51;100022.83;1747489;80;21129;-59
2022/12/23 03:42:14;;;;;;;17.87;9.95;;;;;;;3.28;66.44;100023.41;1710168;82;21160;-58
2022/12/23 03:44:43;;;;;;;35.10;22.93;;;;;;;3.33;66.48;100023.16;1740467;80;22235;-59
2022/12/23 03:47:18;;;;;;;17.37;10.18;;;;;;;3.39;66.45;100025.40;1763744;81;21034;-59
2022/12/23 03:49:57;;;;;;;35.33;24.40;;;;;;;3.38;66.67;100026.34;1751547;80;21094;-59
2022/12/23 03:52:31;;;;;;;20.50;11.43;;;;;;;3.27;66.75;100026.92;1743640;80;21096;-58
2022/12/23 03:55:06;;;;;;;20.48;10.90;;;;;;;3.19;67.00;100027.80;1741245;80;21525;-58
2022/12/23 03:57:40;;;;;;;22.25;10.32;;;;;;;3.16;67.12;100024.92;1744584;80;21119;-58
2022/12/23 04:00:08;;;;;;;22.10;10.72;;;;;;;3.14;67.09;100032.42;1744073;80;21040;-58
2022/12/23 04:02:46;;;;;;;29.72;12.58;;;;;;;3.08;67.08;100033.60;1742934;80;21173;-58
2022/12/23 04:05:27;;;;;;;30.85;23.02;;;;;;;3.05;67.17;100031.16;1745520;80;21138;-58
2022/12/23 04:08:16;;;;;;;17.35;8.30;;;;;;;3.08;67.05;100023.20;1759609;80;21038;-58
2022/12/23 04:10:43;;;;;;;22.82;10.65;;;;;;;3.18;67.04;100020.08;1729929;80;21294;-59
2022/12/23 04:13:09;;;;;;;17.50;9.80;;;;;;;3.22;67.09;100018.53;1757599;80;21717;-59
2022/12/23 04:15:40;;;;;;;22.73;11.10;;;;;;;3.27;67.10;100023.49;1714072;82;20999;-58
2022/12/23 04:18:07;;;;;;;24.47;13.43;;;;;;;3.28;67.09;100015.61;1758901;80;21241;-59
2022/12/23 04:20:35;;;;;;;22.20;11.78;;;;;;;3.28;67.02;100012.18;1751808;80;21618;-59
2022/12/23 04:23:02;;;;;;;21.12;12.95;;;;;;;3.28;66.87;100006.50;1761513;80;21030;-59
2022/12/23 04:25:28;;;;;;;21.97;12.68;;;;;;;3.23;66.88;100005.92;1759527;80;22173;-59
2022/12/23 04:27:55;;;;;;;20.27;12.03;;;;;;;3.21;67.02;100012.12;1744460;80;21039;-59
2022/12/23 04:30:22;;;;;;;25.57;13.35;;;;;;;3.23;66.97;100015.47;1747157;80;21248;-59
2022/12/23 04:32:48;;;;;;;21.60;11.80;;;;;;;3.24;66.97;100019.75;1752304;80;21030;-58
2022/12/23 04:35:15;;;;;;;19.10;11.35;;;;;;;3.25;67.00;100014.94;1742655;80;21064;-58
2022/12/23 04:37:41;;;;;;;19.77;11.57;;;;;;;3.26;66.83;100020.50;1746232;80;21011;-58
2022/12/23 04:40:54;;;;;;;23.87;12.43;;;;;;;3.30;66.98;100023.33;1827918;75;24048;-94
2022/12/23 04:43:20;;;;;;;23.00;13.20;;;;;;;3.43;66.69;100023.02;1748973;79;21117;-64
2022/12/23 04:45:50;;;;;;;34.70;24.02;;;;;;;3.47;66.66;100021.91;1788276;79;21528;-64
2022/12/23 04:48:18;;;;;;;23.25;12.20;;;;;;;3.48;66.64;100014.94;1753752;80;21015;-64
2022/12/23 04:50:44;;;;;;;19.40;11.08;;;;;;;3.50;66.61;100026.94;1760361;80;21056;-64
2022/12/23 04:53:11;;;;;;;18.95;11.40;;;;;;;3.51;66.49;100039.03;1757874;80;21010;-64
2022/12/23 04:55:38;;;;;;;18.30;11.03;;;;;;;3.51;66.29;100041.64;1759332;80;21109;-64
2022/12/23 04:58:05;;;;;;;22.20;12.45;;;;;;;3.48;66.35;100040.50;1757338;80;21227;-64
2022/12/23 05:00:31;;;;;;;31.02;22.37;;;;;;;3.44;66.25;100032.48;1762103;80;21025;-63
2022/12/23 05:06:40;;;;;;;23.85;11.18;;;;;;;3.41;66.52;100058.66;1796640;78;22058;-64
2022/12/23 05:09:07;;;;;;;33.00;22.90;;;;;;;3.50;66.14;100053.43;1772904;80;20967;-64
2022/12/23 05:11:33;;;;;;;26.23;11.20;;;;;;;3.49;66.26;100034.36;1768278;80;21960;-64
2022/12/23 05:13:59;;;;;;;19.42;10.90;;;;;;;3.52;66.34;100047.20;1728462;81;21106;-64
2022/12/23 05:16:26;;;;;;;22.70;12.55;;;;;;;3.53;66.17;100044.13;1695371;83;21584;-64
2022/12/23 05:18:52;;;;;;;33.35;23.90;;;;;;;3.53;66.26;100048.89;1705062;83;21097;-64
2022/12/23 05:21:19;;;;;;;19.42;11.65;;;;;;;3.53;66.20;100046.28;1710814;83;20989;-63
2022/12/23 05:23:45;;;;;;;30.65;23.60;;;;;;;3.52;66.12;100053.70;1708944;83;21273;-63
2022/12/23 05:26:12;;;;;;;21.95;9.90;;;;;;;3.50;66.10;100041.72;1705303;83;21130;-63
2022/12/23 05:28:38;;;;;;;19.05;10.20;;;;;;;3.52;66.06;100043.30;1703807;81;21039;-63
2022/12/23 05:31:06;;;;;;;16.85;10.60;;;;;;;3.62;65.94;100029.78;1717779;83;21071;-63
2022/12/23 05:33:33;;;;;;;21.02;11.05;;;;;;;3.72;65.76;100043.94;1708304;81;21463;-63
2022/12/23 05:36:00;;;;;;;19.95;12.33;;;;;;;3.81;65.79;100041.27;1713580;83;21258;-63
2022/12/23 05:38:27;;;;;;;31.48;21.65;;;;;;;3.83;65.71;100041.58;1702455;83;22035;-63
2022/12/23 05:40:54;;;;;;;22.40;10.00;;;;;;;3.85;65.74;100025.84;1702999;83;21057;-63
2022/12/23 05:43:21;;;;;;;21.62;11.38;;;;;;;3.88;65.71;100036.94;1704238;83;21153;-63
2022/12/23 05:45:48;;;;;;;16.85;11.30;;;;;;;3.87;65.49;100031.34;1708365;83;21067;-63
2022/12/23 05:48:14;;;;;;;29.87;21.85;;;;;;;3.84;65.33;100039.80;1713855;82;21262;-63
2022/12/23 05:50:41;;;;;;;18.67;10.78;;;;;;;3.79;65.26;100061.35;1715062;82;21047;-63
2022/12/23 05:53:08;;;;;;;16.57;10.13;;;;;;;3.74;65.30;100056.88;1714571;83;21023;-63
2022/12/23 05:55:35;;;;;;;23.62;12.00;;;;;;;3.66;65.35;100050.79;1709762;82;21114;-63
2022/12/23 05:58:01;;;;;;;19.62;11.38;;;;;;;3.62;65.41;100061.01;1710139;82;21039;-63
2022/12/23 06:00:29;;;;;;;18.25;10.50;;;;;;;3.58;65.49;100057.74;1711916;82;21595;-62
2022/12/23 06:02:56;;;;;;;18.02;9.68;;;;;;;3.53;65.56;100046.73;1704743;83;21540;-64
2022/12/23 06:05:23;;;;;;;17.35;9.15;;;;;;;3.51;65.53;100051.19;1705417;83;21065;-63
2022/12/23 06:07:50;;;;;;;27.52;19.87;;;;;;;3.58;65.50;100047.34;1759512;79;21094;-63
2022/12/23 06:10:18;;;;;;;25.72;20.00;;;;;;;3.62;65.53;100044.09;1698847;82;21047;-62
2022/12/23 06:12:44;;;;;;;15.45;8.85;;;;;;;3.69;65.59;100032.41;1756138;79;21170;-62
2022/12/23 06:15:11;;;;;;;22.22;11.40;;;;;;;3.68;65.75;100026.81;1770293;80;21016;-63
2022/12/23 06:17:38;;;;;;;18.77;11.30;;;;;;;3.67;65.70;100032.96;1761368;80;21123;-63
2022/12/23 06:22:38;;;;;;;19.23;11.25;;;;;;;3.45;66.30;100037.24;1794054;78;22690;-63
2022/12/23 06:25:06;;;;;;;23.02;13.43;;;;;;;3.49;65.83;100028.33;1771970;80;21093;-63
2022/12/23 06:27:33;;;;;;;19.57;11.55;;;;;;;3.47;65.83;100032.31;1771717;79;22224;-63
2022/12/23 06:30:00;;;;;;;22.85;13.08;;;;;;;3.42;65.87;100027.83;1766306;80;20964;-63
2022/12/23 06:32:26;;;;;;;22.65;12.18;;;;;;;3.36;65.94;100033.36;1763815;80;21058;-62
2022/12/23 06:34:53;;;;;;;20.40;12.28;;;;;;;3.32;66.05;100034.00;1765665;80;21350;-63
2022/12/23 06:37:20;;;;;;;21.97;12.33;;;;;;;3.37;66.08;100023.82;1767408;80;21013;-63
2022/12/23 06:39:46;;;;;;;33.40;22.85;;;;;;;3.45;66.06;100032.04;1762659;80;21252;-63
2022/12/23 06:42:13;;;;;;;26.90;12.35;;;;;;;3.54;66.01;100033.63;1765425;80;20975;-63
2022/12/23 06:44:41;;;;;;;35.17;25.48;;;;;;;3.62;65.90;100028.48;1764148;80;20938;-63
2022/12/23 06:47:07;;;;;;;27.05;12.40;;;;;;;3.63;65.88;100037.95;1760923;80;20994;-63
2022/12/23 06:49:34;;;;;;;20.52;14.20;;;;;;;3.64;65.84;100035.73;1768291;80;21560;-63
2022/12/23 06:52:01;;;;;;;22.75;12.07;;;;;;;3.63;65.76;100037.50;1769268;80;21473;-63
2022/12/23 06:54:27;;;;;;;22.15;12.93;;;;;;;3.58;65.60;100033.03;1769246;80;22599;-63
2022/12/23 06:56:54;;;;;;;34.05;23.62;;;;;;;3.52;65.62;100039.39;1770267;80;21563;-63
2022/12/23 06:59:20;;;;;;;21.35;11.05;;;;;;;3.49;65.66;100056.94;1784086;80;21051;-63
2022/12/23 07:01:47;;;;;;;21.75;12.53;;;;;;;3.46;65.60;100059.70;1780707;80;21026;-61
2022/12/23 07:04:13;;;;;;;31.65;23.73;;;;;;;3.42;65.66;100060.81;1773643;80;21256;-61
2022/12/23 07:06:40;;;;;;;18.07;10.10;;;;;;;3.41;65.68;100050.02;1771551;80;21054;-62
2022/12/23 07:09:06;;;;;;;17.17;9.45;;;;;;;3.44;65.67;100066.30;1784158;80;21039;-63
2022/12/23 07:11:33;;;;;;;18.62;10.98;;;;;;;3.51;65.56;100053.78;1768771;80;21051;-63
2022/12/23 07:14:00;;;;;;;16.15;9.83;;;;;;;3.61;65.48;100052.34;1766601;80;21033;-62
2022/12/23 07:16:26;;;;;;;25.10;12.28;;;;;;;3.69;65.46;100052.75;1765390;80;21269;-62
2022/12/23 07:18:53;;;;;;;22.70;12.70;;;;;;;3.76;65.29;100048.51;1765834;80;21102;-62
2022/12/23 07:21:19;;;;;;;26.95;15.78;;;;;;;3.79;65.11;100050.94;1764612;80;21015;-61
2022/12/23 07:23:46;;;;;;;21.27;13.00;;;;;;;3.79;65.00;100058.75;1756748;80;21086;-60
2022/12/23 07:26:13;;;;;;;33.48;25.00;;;;;;;3.79;64.87;100057.45;1752888;80;21059;-61
2022/12/23 07:28:40;;;;;;;24.95;13.62;;;;;;;3.76;64.89;100050.64;1750569;80;21259;-63
2022/12/23 07:31:06;;;;;;;24.60;15.40;;;;;;;3.78;64.76;100057.89;1739129;80;21023;-62
2022/12/23 07:33:32;;;;;;;26.27;15.32;;;;;;;3.76;64.80;100061.05;1756549;80;21068;-62
2022/12/23 07:35:59;;;;;;;27.55;14.68;;;;;;;3.75;64.77;100072.84;1763643;79;21050;-64
2022/12/23 07:38:25;;;;;;;24.60;13.40;;;;;;;3.74;64.85;100063.38;1752512;80;21087;-65
2022/12/23 07:40:51;;;;;;;26.33;13.18;;;;;;;3.79;64.70;100066.09;1753922;80;21271;-61
2022/12/23 07:43:19;;;;;;;24.25;13.70;;;;;;;3.91;64.52;100063.24;1757551;79;21031;-60
2022/12/23 07:45:46;;;;;;;39.70;26.40;;;;;;;4.04;64.28;100075.09;1747886;80;21012;-61
2022/12/23 07:48:12;;;;;;;25.75;12.63;;;;;;;4.12;64.05;100066.38;1752418;79;20992;-60
2022/12/23 07:50:39;;;;;;;22.40;12.30;;;;;;;4.17;64.15;100066.95;1745645;80;21277;-61
2022/12/23 07:53:05;;;;;;;22.98;14.18;;;;;;;4.23;63.74;100070.48;1753567;80;21147;-60
2022/12/23 07:55:32;;;;;;;27.52;13.93;;;;;;;4.24;63.65;100065.66;1750309;80;20997;-59
2022/12/23 07:57:58;;;;;;;32.03;24.77;;;;;;;4.27;63.33;100062.05;1751116;80;21031;-59
2022/12/23 08:00:25;;;;;;;21.37;12.70;;;;;;;4.29;63.15;100062.78;1757990;79;21098;-62
2022/12/23 08:02:51;;;;;;;39.48;27.80;;;;;;;4.28;62.89;100065.01;1752040;80;21052;-60
2022/12/23 08:05:18;;;;;;;41.23;29.40;;;;;;;4.25;62.93;100063.87;1759000;80;21113;-62
2022/12/23 08:07:44;;;;;;;37.50;27.82;;;;;;;4.24;62.98;100059.14;1748043;80;21485;-63
2022/12/23 08:10:11;;;;;;;26.75;13.88;;;;;;;4.25;62.90;100054.32;1752468;80;21044;-62
2022/12/23 08:12:38;;;;;;;26.97;16.20;;;;;;;4.27;62.88;100057.67;1752763;80;21543;-60
2022/12/23 08:15:08;;;;;;;28.45;15.03;;;;;;;4.38;62.66;100058.80;1703666;82;21573;-64
2022/12/23 08:20:23;;;;;;;33.08;24.85;;;;;;;4.52;62.25;100062.70;1665037;83;21055;-62
2022/12/23 08:22:50;;;;;;;35.85;25.55;;;;;;;4.53;61.99;100068.77;1704714;83;21051;-62
2022/12/23 08:25:16;;;;;;;35.45;25.25;;;;;;;4.49;61.65;100064.66;1705470;83;21595;-60
2022/12/23 08:27:43;;;;;;;28.02;15.13;;;;;;;4.42;61.73;100060.27;1701230;82;21348;-62
2022/12/23 08:30:11;;;;;;;29.70;24.45;;;;;;;4.37;61.84;100062.31;1686846;84;21827;-61
2022/12/23 08:32:38;;;;;;;23.10;11.65;;;;;;;4.30;61.86;100055.33;1695975;83;21012;-63
2022/12/23 08:35:06;;;;;;;51.30;35.85;;;;;;;4.26;62.10;100054.67;1718934;82;22180;-60
2022/12/23 08:37:32;;;;;;;31.60;16.23;;;;;;;4.23;62.22;100048.34;1710770;82;21093;-68
2022/12/23 08:39:59;;;;;;;44.88;31.37;;;;;;;4.23;62.30;100047.52;1707695;83;21086;-63
2022/12/23 08:42:25;;;;;;;48.85;34.92;;;;;;;4.25;62.34;100044.34;1756680;81;21215;-61
2022/12/23 08:44:52;;;;;;;27.42;14.07;;;;;;;4.27;62.29;100039.44;1746896;80;21007;-61
2022/12/23 08:47:18;;;;;;;30.32;13.88;;;;;;;4.36;62.01;100025.49;1755721;80;21656;-64
2022/12/23 08:50:49;;;;;;;41.70;30.23;;;;;;;4.41;62.15;100030.79;1868930;75;22481;-64
2022/12/23 08:53:16;;;;;;;30.08;14.93;;;;;;;4.54;61.80;100024.83;1866608;75;21547;-60
2022/12/23 08:55:45;;;;;;;39.85;28.80;;;;;;;4.58;61.65;100024.55;1864284;75;21905;-60
2022/12/23 08:58:12;;;;;;;28.67;15.75;;;;;;;4.59;61.56;100021.48;1812346;78;20920;-64
2022/12/23 09:00:39;;;;;;;24.40;14.58;;;;;;;4.57;61.46;100020.73;1803541;78;21095;-64
2022/12/23 09:03:06;;;;;;;34.88;27.25;;;;;;;4.54;61.42;100013.10;1811767;78;20987;-64
2022/12/23 09:05:32;;;;;;;43.73;32.38;;;;;;;4.53;61.38;100011.45;1799105;78;21043;-65
2022/12/23 09:08:00;;;;;;;42.93;20.15;;;;;;;4.51;61.24;100011.54;1800506;78;21131;-65
2022/12/23 09:10:26;;;;;;;29.45;15.55;;;;;;;4.49;61.24;100013.84;1748218;78;20915;-62
2022/12/23 09:12:54;;;;;;;28.15;15.25;;;;;;;4.46;61.22;100014.89;1803910;78;21513;-63
2022/12/23 09:15:21;;;;;;;51.37;36.42;;;;;;;4.43;61.08;100013.77;1801088;78;21058;-63
2022/12/23 09:17:47;;;;;;;26.75;14.63;;;;;;;4.43;61.27;100013.30;1811429;77;21034;-59
2022/12/23 09:20:14;;;;;;;38.28;26.40;;;;;;;4.51;61.09;100012.84;1802632;77;21207;-59
2022/12/23 09:23:33;;;;;;;25.40;12.28;;;;;;;4.50;61.33;100004.64;1794064;78;22923;-60
2022/12/23 09:25:59;;;;;;;36.08;26.35;;;;;;;4.75;60.45;100004.45;1716812;81;22181;-60
2022/12/23 09:28:26;;;;;;;36.80;26.62;;;;;;;4.79;60.30;100002.01;1704684;83;22595;-59
2022/12/23 09:30:53;;;;;;;37.85;27.05;;;;;;;4.87;60.29;100005.45;1734527;81;21048;-61
2022/12/23 09:33:19;;;;;;;25.85;13.25;;;;;;;4.92;60.09;100010.74;1711392;82;21292;-60
2022/12/23 09:35:46;;;;;;;38.73;26.90;;;;;;;4.98;60.01;100019.50;1712929;82;21567;-61
2022/12/23 09:38:13;;;;;;;37.73;27.37;;;;;;;5.05;59.47;100025.64;1710426;82;21662;-61
2022/12/23 09:40:40;;;;;;;24.85;13.80;;;;;;;5.07;59.28;100019.38;1735642;80;21435;-60
2022/12/23 09:43:44;;;;;;;37.35;27.35;;;;;;;5.22;59.00;100031.92;1700750;82;21051;-59
2022/12/23 09:46:18;;;;;;;23.38;13.18;;;;;;;5.32;58.73;100034.80;1702604;83;21596;-59
2022/12/23 09:49:01;;;;;;;38.95;28.32;;;;;;;5.36;58.58;100024.06;1713008;81;21026;-60
2022/12/23 09:51:27;;;;;;;30.62;16.02;;;;;;;5.37;58.60;100032.72;1704350;83;21094;-61
2022/12/23 09:54:11;;;;;;;36.38;26.57;;;;;;;5.38;58.70;100017.45;1695171;83;21150;-60
2022/12/23 09:57:10;;;;;;;35.60;27.37;;;;;;;5.39;58.49;100006.89;1711135;81;21015;-61
2022/12/23 10:00:16;;;;;;;27.60;13.88;;;;;;;5.36;58.42;99997.98;1719805;81;21157;-61
2022/12/23 10:03:01;;;;;;;36.85;27.70;;;;;;;5.35;58.44;100002.81;1719026;81;21066;-61
2022/12/23 10:05:45;;;;;;;34.08;28.10;;;;;;;5.32;58.41;100006.09;1718350;81;21051;-61
2022/12/23 10:08:20;;;;;;;25.02;13.48;;;;;;;5.28;58.18;100007.20;1727079;81;21259;-60
2022/12/23 10:10:51;;;;;;;26.48;14.85;;;;;;;5.22;58.20;100009.75;1719556;81;21051;-60
2022/12/23 10:13:39;;;;;;;27.80;17.02;;;;;;;5.18;58.55;99995.24;1718957;82;21058;-61
2022/12/23 10:16:21;;;;;;;40.90;28.95;;;;;;;5.20;58.75;99991.59;1717927;81;21135;-61
2022/12/23 10:19:20;;;;;;;29.02;14.87;;;;;;;5.22;58.56;99992.80;1702320;82;21114;-61
2022/12/23 10:21:51;;;;;;;24.72;16.62;;;;;;;5.32;58.46;99986.05;1684684;82;21378;-61
2022/12/23 10:24:23;;;;;;;26.75;15.68;;;;;;;5.48;58.17;99985.05;1747895;81;21068;-62
2022/12/23 10:27:17;;;;;;;39.00;29.80;;;;;;;5.58;58.03;99984.36;1747430;81;21164;-61
2022/12/23 10:29:43;;;;;;;27.32;16.10;;;;;;;5.61;57.81;99993.75;1761694;81;21522;-62
2022/12/23 10:32:37;;;;;;;39.00;28.70;;;;;;;5.54;57.56;100002.92;1750741;81;21284;-61
2022/12/23 10:35:48;;;;;;;28.70;16.67;;;;;;;5.48;57.68;99998.09;1713769;81;21871;-61
2022/12/23 10:38:36;;;;;;;39.55;29.67;;;;;;;5.44;57.92;99989.63;1716857;82;21082;-61
2022/12/23 10:41:37;;;;;;;43.05;30.43;;;;;;;5.47;58.09;99996.44;1718126;82;20984;-62
2022/12/23 10:44:41;;;;;;;19.37;11.43;;;;;;;5.49;57.92;100012.83;1703649;83;21084;-62
2022/12/23 10:47:20;;;;;;;30.75;16.25;;;;;;;5.51;58.21;100008.34;1694215;83;21117;-62
2022/12/23 10:50:13;;;;;;;40.48;29.60;;;;;;;5.59;58.12;100010.81;1711548;82;21233;-62
2022/12/23 10:52:41;;;;;;;28.38;16.73;;;;;;;5.65;58.06;100006.13;1668152;83;21065;-62
2022/12/23 10:55:24;;;;;;;43.25;31.75;;;;;;;5.66;57.55;99989.55;1701537;82;21075;-62
2022/12/23 10:57:51;;;;;;;41.13;29.72;;;;;;;5.64;57.68;99982.29;1752410;79;21084;-61
2022/12/23 11:00:21;;;;;;;26.85;15.03;;;;;;;5.66;57.79;99972.58;1745151;80;21027;-61
2022/12/23 11:03:15;;;;;;;41.55;32.67;;;;;;;5.72;57.92;99959.95;1745754;81;21880;-61
2022/12/23 11:05:42;;;;;;;28.98;14.38;;;;;;;5.81;57.96;99958.97;1749298;81;21035;-60
2022/12/23 11:08:09;;;;;;;45.00;31.17;;;;;;;5.89;57.80;99961.91;1749204;81;21607;-60
2022/12/23 11:10:35;;;;;;;45.45;31.85;;;;;;;5.97;57.32;99967.94;1748416;81;21567;-61
2022/12/23 11:13:03;;;;;;;48.50;31.20;;;;;;;5.99;57.43;99951.23;1747850;81;21008;-62
2022/12/23 11:15:39;;;;;;;28.67;15.80;;;;;;;6.06;57.32;99950.35;1752474;81;21239;-62
2022/12/23 11:18:15;;;;;;;27.58;14.73;;;;;;;6.09;56.98;99944.92;1749009;81;21674;-60
2022/12/23 11:20:44;;;;;;;34.25;18.77;;;;;;;6.05;56.86;99941.69;1693906;83;21032;-61
2022/12/23 11:23:24;;;;;;;41.42;30.43;;;;;;;5.99;56.91;99947.80;1724234;82;21110;-62
2022/12/23 11:26:06;;;;;;;27.58;16.30;;;;;;;5.93;57.09;99947.25;1693896;83;21063;-62
2022/12/23 11:28:48;;;;;;;49.80;32.42;;;;;;;5.85;57.22;99949.98;1706131;82;22196;-62
2022/12/23 11:31:16;;;;;;;27.48;16.25;;;;;;;5.79;57.52;99953.86;1684277;83;21103;-61
2022/12/23 11:33:57;;;;;;;40.78;30.62;;;;;;;5.77;57.69;99964.88;1710793;82;21059;-61
2022/12/23 11:36:26;;;;;;;44.50;31.52;;;;;;;5.77;57.81;99961.78;1718383;82;21085;-60
2022/12/23 11:39:10;;;;;;;40.10;29.18;;;;;;;5.85;57.75;99967.81;1708975;82;22132;-61
2022/12/23 11:41:47;;;;;;;41.45;30.00;;;;;;;6.03;57.50;99967.05;1662009;82;22090;-61
2022/12/23 11:44:38;;;;;;;39.38;30.82;;;;;;;6.16;57.31;99974.08;1710484;82;21011;-61
2022/12/23 11:47:23;;;;;;;46.98;32.55;;;;;;;6.29;57.14;99976.22;1707508;82;21047;-60
2022/12/23 11:49:56;;;;;;;29.57;16.77;;;;;;;6.43;56.99;99977.87;1708458;83;21059;-61
2022/12/23 11:52:26;;;;;;;41.15;31.65;;;;;;;6.59;56.87;99971.09;1717828;82;21117;-61
2022/12/23 11:54:59;;;;;;;47.17;32.05;;;;;;;6.71;56.69;99962.41;1713223;82;21223;-60
2022/12/23 11:57:45;;;;;;;49.40;33.25;;;;;;;6.77;56.19;99959.34;1706590;82;21062;-60
2022/12/23 12:00:29;;;;;;;31.30;16.35;;;;;;;6.86;56.09;99974.88;1708524;83;21390;-61
2022/12/23 12:02:58;;;;;;;47.53;32.90;;;;;;;6.88;55.69;99981.65;1709958;82;21066;-61
2022/12/23 12:05:42;;;;;;;48.42;32.35;;;;;;;6.90;55.46;99980.72;1708486;83;21066;-60
2022/12/23 12:08:12;;;;;;;40.80;30.70;;;;;;;6.89;55.62;99985.09;1706058;82;21264;-59
2022/12/23 12:10:39;;;;;;;47.35;34.23;;;;;;;6.92;55.64;99984.05;1706529;83;21114;-61
2022/12/23 12:13:26;;;;;;;48.63;33.98;;;;;;;6.94;55.58;99985.59;1715729;83;21085;-62
2022/12/23 12:16:22;;;;;;;49.53;34.78;;;;;;;6.93;55.67;99981.33;1705805;83;21776;-60
2022/12/23 12:18:49;;;;;;;26.15;16.50;;;;;;;6.91;55.52;99992.83;1714100;82;21581;-60
2022/12/23 12:21:20;;;;;;;42.73;33.67;;;;;;;6.90;55.74;100001.16;1706742;82;21675;-62
2022/12/23 12:23:52;;;;;;;50.67;35.28;;;;;;;6.90;55.66;99997.72;1707508;83;21067;-62
2022/12/23 12:26:26;;;;;;;50.35;36.15;;;;;;;6.87;55.69;99991.73;1702162;83;21055;-59
2022/12/23 12:28:58;;;;;;;50.28;34.73;;;;;;;6.79;55.69;99996.70;1755757;80;21127;-60